sensor_id;sensor_type;location;lat;lon;timestamp;temperature;humidity
25250;DHT22;13201;51.148;13.738;2023-04-22T00:02:11;9.30;99.90
25250;DHT22;13201;51.148;13.738;2023-04-22T00:04:39;9.50;99.90
25250;DHT22;13201;51.148;13.738;2023-04-22T00:07:06;9.70;99.90
25250;DHT22;13201;51.148;13.738;2023-04-22T00:09:31;9.80;99.90
25250;DHT22;13201;51.148;13.738;2023-04-22T00:11:57;9.90;99.90
25250;DHT22;13201;51.148;13.738;2023-04-22T00:14:23;9.70;99.90
25250;DHT22;13201;51.148;13.738;2023-04-22T00:16:49;9.60;99.90
25250;DHT22;13201;51.148;13.738;2023-04-22T00:19:15;9.50;99.90
25250;DHT22;13201;51.148;13.738;2023-04-22T00:21:41;9.40;99.90
25250;DHT22;13201;51.148;13.738;2023-04-22T00:24:06;9.20;99.90
25250;DHT22;13201;51.148;13.738;2023-04-22T00:26:32;9.30;99.90
25250;DHT22;13201;51.148;13.738;2023-04-22T00:28:58;9.10;99.90
25250;DHT22;13201;51.148;13.738;2023-04-22T00:31:23;9.00;99.90
25250;DHT22;13201;51.148;13.738;2023-04-22T00:33:49;9.00;99.90
25250;DHT22;13201;51.148;13.738;2023-04-22T00:36:15;9.00;99.90
25250;DHT22;13201;51.148;13.738;2023-04-22T00:38:47;9.00;99.90
25250;DHT22;13201;51.148;13.738;2023-04-22T00:41:13;9.00;99.90
25250;DHT22;13201;51.148;13.738;2023-04-22T00:43:39;9.00;99.90
25250;DHT22;13201;51.148;13.738;2023-04-22T00:46:05;8.90;99.90
25250;DHT22;13201;51.148;13.738;2023-04-22T00:48:31;8.90;99.90
25250;DHT22;13201;51.148;13.738;2023-04-22T00:50:57;8.90;99.90
25250;DHT22;13201;51.148;13.738;2023-04-22T00:53:22;9.00;99.90
25250;DHT22;13201;51.148;13.738;2023-04-22T00:55:48;9.00;99.90
25250;DHT22;13201;51.148;13.738;2023-04-22T00:58:14;8.80;99.90
25250;DHT22;13201;51.148;13.738;2023-04-22T01:00:40;8.90;99.90
25250;DHT22;13201;51.148;13.738;2023-04-22T01:03:06;8.90;99.90
25250;DHT22;13201;51.148;13.738;2023-04-22T01:30:34;7.40;99.90
25250;DHT22;13201;51.148;13.738;2023-04-22T01:33:00;7.20;99.90
25250;DHT22;13201;51.148;13.738;2023-04-22T01:35:25;7.20;99.90
25250;DHT22;13201;51.148;13.738;2023-04-22T01:37:51;7.20;99.90
25250;DHT22;13201;51.148;13.738;2023-04-22T01:40:18;7.20;99.90
25250;DHT22;13201;51.148;13.738;2023-04-22T01:42:47;7.30;99.90
25250;DHT22;13201;51.148;13.738;2023-04-22T01:45:12;7.30;99.90
25250;DHT22;13201;51.148;13.738;2023-04-22T01:47:39;7.30;99.90
25250;DHT22;13201;51.148;13.738;2023-04-22T01:50:05;7.40;99.90
25250;DHT22;13201;51.148;13.738;2023-04-22T01:52:31;7.60;99.90
25250;DHT22;13201;51.148;13.738;2023-04-22T01:54:57;7.50;99.90
25250;DHT22;13201;51.148;13.738;2023-04-22T01:57:23;7.60;99.90
25250;DHT22;13201;51.148;13.738;2023-04-22T01:59:48;7.50;99.90
25250;DHT22;13201;51.148;13.738;2023-04-22T02:02:14;7.50;99.90
25250;DHT22;13201;51.148;13.738;2023-04-22T02:04:40;7.70;99.90
25250;DHT22;13201;51.148;13.738;2023-04-22T02:07:05;7.70;99.90
25250;DHT22;13201;51.148;13.738;2023-04-22T02:09:32;7.80;99.90
25250;DHT22;13201;51.148;13.738;2023-04-22T02:11:58;7.70;99.90
25250;DHT22;13201;51.148;13.738;2023-04-22T02:14:23;7.60;99.90
25250;DHT22;13201;51.148;13.738;2023-04-22T02:16:49;7.50;99.90
25250;DHT22;13201;51.148;13.738;2023-04-22T02:19:16;7.50;99.90
25250;DHT22;13201;51.148;13.738;2023-04-22T02:21:41;7.40;99.90
25250;DHT22;13201;51.148;13.738;2023-04-22T02:24:07;7.50;99.90
25250;DHT22;13201;51.148;13.738;2023-04-22T02:26:33;7.50;99.90
25250;DHT22;13201;51.148;13.738;2023-04-22T02:28:58;7.70;99.90
25250;DHT22;13201;51.148;13.738;2023-04-22T02:31:24;7.80;99.90
25250;DHT22;13201;51.148;13.738;2023-04-22T02:33:50;8.10;99.90
25250;DHT22;13201;51.148;13.738;2023-04-22T02:36:15;8.30;99.90
25250;DHT22;13201;51.148;13.738;2023-04-22T02:38:41;8.60;99.90
25250;DHT22;13201;51.148;13.738;2023-04-22T02:41:07;8.70;99.90
25250;DHT22;13201;51.148;13.738;2023-04-22T02:43:32;8.70;99.90
25250;DHT22;13201;51.148;13.738;2023-04-22T02:45:58;8.50;99.90
25250;DHT22;13201;51.148;13.738;2023-04-22T02:48:24;8.50;99.90
25250;DHT22;13201;51.148;13.738;2023-04-22T02:50:50;8.50;99.90
25250;DHT22;13201;51.148;13.738;2023-04-22T02:53:15;8.50;99.90
25250;DHT22;13201;51.148;13.738;2023-04-22T02:55:41;8.40;99.90
25250;DHT22;13201;51.148;13.738;2023-04-22T02:58:07;8.60;99.90
25250;DHT22;13201;51.148;13.738;2023-04-22T03:00:33;8.40;99.90
25250;DHT22;13201;51.148;13.738;2023-04-22T03:02:59;8.40;99.90
25250;DHT22;13201;51.148;13.738;2023-04-22T03:05:25;8.30;99.90
25250;DHT22;13201;51.148;13.738;2023-04-22T03:07:50;8.50;99.90
25250;DHT22;13201;51.148;13.738;2023-04-22T03:10:16;8.60;99.90
25250;DHT22;13201;51.148;13.738;2023-04-22T03:12:42;8.60;99.90
25250;DHT22;13201;51.148;13.738;2023-04-22T03:15:08;8.60;99.90
25250;DHT22;13201;51.148;13.738;2023-04-22T03:17:34;8.50;99.90
25250;DHT22;13201;51.148;13.738;2023-04-22T03:20:00;8.50;99.90
25250;DHT22;13201;51.148;13.738;2023-04-22T03:22:25;8.40;99.90
25250;DHT22;13201;51.148;13.738;2023-04-22T03:24:51;8.50;99.90
25250;DHT22;13201;51.148;13.738;2023-04-22T03:27:17;8.50;99.90
25250;DHT22;13201;51.148;13.738;2023-04-22T03:29:42;8.20;99.90
25250;DHT22;13201;51.148;13.738;2023-04-22T03:32:08;7.70;99.90
25250;DHT22;13201;51.148;13.738;2023-04-22T03:34:34;7.70;99.90
25250;DHT22;13201;51.148;13.738;2023-04-22T03:36:59;8.00;99.90
25250;DHT22;13201;51.148;13.738;2023-04-22T03:39:25;8.00;99.90
25250;DHT22;13201;51.148;13.738;2023-04-22T03:41:51;8.10;99.90
25250;DHT22;13201;51.148;13.738;2023-04-22T03:44:16;8.10;99.90
25250;DHT22;13201;51.148;13.738;2023-04-22T03:46:42;8.10;99.90
25250;DHT22;13201;51.148;13.738;2023-04-22T03:49:07;8.00;99.90
25250;DHT22;13201;51.148;13.738;2023-04-22T03:51:33;8.00;99.90
25250;DHT22;13201;51.148;13.738;2023-04-22T03:53:59;8.00;99.90
25250;DHT22;13201;51.148;13.738;2023-04-22T03:56:24;8.10;99.90
25250;DHT22;13201;51.148;13.738;2023-04-22T03:58:50;8.10;99.90
25250;DHT22;13201;51.148;13.738;2023-04-22T04:01:16;7.70;99.90
25250;DHT22;13201;51.148;13.738;2023-04-22T04:03:41;7.50;99.90
25250;DHT22;13201;51.148;13.738;2023-04-22T04:06:07;7.60;99.90
25250;DHT22;13201;51.148;13.738;2023-04-22T04:08:33;7.70;99.90
25250;DHT22;13201;51.148;13.738;2023-04-22T04:10:59;7.60;99.90
25250;DHT22;13201;51.148;13.738;2023-04-22T04:13:25;7.60;99.90
25250;DHT22;13201;51.148;13.738;2023-04-22T04:15:50;7.60;99.90
25250;DHT22;13201;51.148;13.738;2023-04-22T04:18:16;7.70;99.90
25250;DHT22;13201;51.148;13.738;2023-04-22T04:20:42;7.60;99.90
25250;DHT22;13201;51.148;13.738;2023-04-22T04:23:08;7.60;99.90
25250;DHT22;13201;51.148;13.738;2023-04-22T04:25:33;7.50;99.90
25250;DHT22;13201;51.148;13.738;2023-04-22T04:28:06;7.60;99.90
25250;DHT22;13201;51.148;13.738;2023-04-22T04:30:35;7.70;99.90
25250;DHT22;13201;51.148;13.738;2023-04-22T04:33:01;7.40;99.90
25250;DHT22;13201;51.148;13.738;2023-04-22T04:35:34;7.50;99.90
25250;DHT22;13201;51.148;13.738;2023-04-22T04:38:00;7.50;99.90
25250;DHT22;13201;51.148;13.738;2023-04-22T04:40:26;7.50;99.90
25250;DHT22;13201;51.148;13.738;2023-04-22T04:42:55;7.50;99.90
25250;DHT22;13201;51.148;13.738;2023-04-22T04:45:22;7.50;99.90
25250;DHT22;13201;51.148;13.738;2023-04-22T04:47:48;7.60;99.90
25250;DHT22;13201;51.148;13.738;2023-04-22T04:50:17;7.70;99.90
25250;DHT22;13201;51.148;13.738;2023-04-22T04:52:45;7.80;99.90
25250;DHT22;13201;51.148;13.738;2023-04-22T04:55:11;7.90;99.90
25250;DHT22;13201;51.148;13.738;2023-04-22T04:57:37;8.00;99.90
25250;DHT22;13201;51.148;13.738;2023-04-22T05:00:03;7.90;99.90
25250;DHT22;13201;51.148;13.738;2023-04-22T05:02:28;8.00;99.90
25250;DHT22;13201;51.148;13.738;2023-04-22T05:04:54;8.10;99.90
25250;DHT22;13201;51.148;13.738;2023-04-22T05:07:20;8.10;99.90
25250;DHT22;13201;51.148;13.738;2023-04-22T05:09:45;8.30;99.90
25250;DHT22;13201;51.148;13.738;2023-04-22T05:12:11;8.40;99.90
25250;DHT22;13201;51.148;13.738;2023-04-22T05:14:36;8.60;99.90
25250;DHT22;13201;51.148;13.738;2023-04-22T05:17:02;8.80;99.90
25250;DHT22;13201;51.148;13.738;2023-04-22T05:19:28;9.00;99.90
25250;DHT22;13201;51.148;13.738;2023-04-22T05:21:54;9.30;99.90
25250;DHT22;13201;51.148;13.738;2023-04-22T05:24:19;9.70;99.90
25250;DHT22;13201;51.148;13.738;2023-04-22T05:26:45;9.90;99.90
25250;DHT22;13201;51.148;13.738;2023-04-22T05:29:11;10.10;99.90
25250;DHT22;13201;51.148;13.738;2023-04-22T05:31:37;10.20;99.90
25250;DHT22;13201;51.148;13.738;2023-04-22T05:34:02;10.50;99.90
25250;DHT22;13201;51.148;13.738;2023-04-22T05:36:28;10.70;99.90
25250;DHT22;13201;51.148;13.738;2023-04-22T05:38:54;10.90;99.90
25250;DHT22;13201;51.148;13.738;2023-04-22T05:41:19;11.00;99.90
25250;DHT22;13201;51.148;13.738;2023-04-22T05:43:45;11.20;99.90
25250;DHT22;13201;51.148;13.738;2023-04-22T05:46:12;11.40;99.90
25250;DHT22;13201;51.148;13.738;2023-04-22T05:48:38;11.50;99.90
25250;DHT22;13201;51.148;13.738;2023-04-22T05:51:03;11.60;99.90
25250;DHT22;13201;51.148;13.738;2023-04-22T05:53:29;11.80;99.90
25250;DHT22;13201;51.148;13.738;2023-04-22T05:55:55;12.00;99.90
25250;DHT22;13201;51.148;13.738;2023-04-22T05:58:20;12.10;99.90
25250;DHT22;13201;51.148;13.738;2023-04-22T06:00:46;12.20;99.90
25250;DHT22;13201;51.148;13.738;2023-04-22T06:03:12;12.40;99.90
25250;DHT22;13201;51.148;13.738;2023-04-22T06:05:37;12.70;99.90
25250;DHT22;13201;51.148;13.738;2023-04-22T06:08:03;12.70;99.90
25250;DHT22;13201;51.148;13.738;2023-04-22T06:10:29;12.90;99.90
25250;DHT22;13201;51.148;13.738;2023-04-22T06:12:54;13.00;99.90
25250;DHT22;13201;51.148;13.738;2023-04-22T06:15:20;13.10;99.90
25250;DHT22;13201;51.148;13.738;2023-04-22T06:17:47;13.10;99.90
25250;DHT22;13201;51.148;13.738;2023-04-22T06:20:13;13.30;99.90
25250;DHT22;13201;51.148;13.738;2023-04-22T06:22:39;13.40;99.90
25250;DHT22;13201;51.148;13.738;2023-04-22T06:25:05;13.40;99.90
25250;DHT22;13201;51.148;13.738;2023-04-22T06:27:31;13.60;99.90
25250;DHT22;13201;51.148;13.738;2023-04-22T06:29:56;13.70;99.90
25250;DHT22;13201;51.148;13.738;2023-04-22T06:32:22;13.80;99.90
25250;DHT22;13201;51.148;13.738;2023-04-22T06:34:48;13.90;99.90
25250;DHT22;13201;51.148;13.738;2023-04-22T06:37:13;13.90;99.90
25250;DHT22;13201;51.148;13.738;2023-04-22T06:39:39;13.90;99.90
25250;DHT22;13201;51.148;13.738;2023-04-22T06:42:05;14.10;99.90
25250;DHT22;13201;51.148;13.738;2023-04-22T06:44:30;14.10;99.90
25250;DHT22;13201;51.148;13.738;2023-04-22T06:46:56;14.20;99.90
25250;DHT22;13201;51.148;13.738;2023-04-22T06:49:22;14.50;99.90
25250;DHT22;13201;51.148;13.738;2023-04-22T06:51:47;14.50;99.90
25250;DHT22;13201;51.148;13.738;2023-04-22T06:54:13;14.50;99.90
25250;DHT22;13201;51.148;13.738;2023-04-22T06:56:39;14.70;99.90
25250;DHT22;13201;51.148;13.738;2023-04-22T06:59:04;14.90;99.90
25250;DHT22;13201;51.148;13.738;2023-04-22T07:01:32;14.80;99.90
25250;DHT22;13201;51.148;13.738;2023-04-22T07:03:57;14.80;99.90
25250;DHT22;13201;51.148;13.738;2023-04-22T07:06:23;14.90;99.90
25250;DHT22;13201;51.148;13.738;2023-04-22T07:08:49;14.90;99.90
25250;DHT22;13201;51.148;13.738;2023-04-22T07:11:15;15.00;99.90
25250;DHT22;13201;51.148;13.738;2023-04-22T07:13:40;15.20;99.90
25250;DHT22;13201;51.148;13.738;2023-04-22T07:16:06;15.20;99.90
25250;DHT22;13201;51.148;13.738;2023-04-22T07:18:32;15.30;99.90
25250;DHT22;13201;51.148;13.738;2023-04-22T07:21:00;15.30;99.90
25250;DHT22;13201;51.148;13.738;2023-04-22T07:23:25;15.40;99.90
25250;DHT22;13201;51.148;13.738;2023-04-22T07:25:51;15.50;99.90
25250;DHT22;13201;51.148;13.738;2023-04-22T07:28:17;15.60;99.90
25250;DHT22;13201;51.148;13.738;2023-04-22T07:30:43;15.70;99.90
25250;DHT22;13201;51.148;13.738;2023-04-22T07:33:08;15.80;99.90
25250;DHT22;13201;51.148;13.738;2023-04-22T07:35:35;15.90;99.90
25250;DHT22;13201;51.148;13.738;2023-04-22T07:38:00;15.90;99.90
25250;DHT22;13201;51.148;13.738;2023-04-22T07:40:26;16.00;99.90
25250;DHT22;13201;51.148;13.738;2023-04-22T07:42:52;16.10;99.90
25250;DHT22;13201;51.148;13.738;2023-04-22T07:45:17;16.10;99.90
25250;DHT22;13201;51.148;13.738;2023-04-22T07:47:44;16.20;99.90
25250;DHT22;13201;51.148;13.738;2023-04-22T07:50:10;16.30;99.90
25250;DHT22;13201;51.148;13.738;2023-04-22T07:52:35;16.40;99.90
25250;DHT22;13201;51.148;13.738;2023-04-22T07:55:01;16.60;99.90
25250;DHT22;13201;51.148;13.738;2023-04-22T07:57:27;16.70;99.90
25250;DHT22;13201;51.148;13.738;2023-04-22T07:59:52;16.70;99.90
25250;DHT22;13201;51.148;13.738;2023-04-22T08:02:18;16.80;99.90
25250;DHT22;13201;51.148;13.738;2023-04-22T08:04:44;16.80;99.90
25250;DHT22;13201;51.148;13.738;2023-04-22T08:07:10;16.90;99.90
25250;DHT22;13201;51.148;13.738;2023-04-22T08:09:35;17.00;99.90
25250;DHT22;13201;51.148;13.738;2023-04-22T08:12:01;17.10;99.90
25250;DHT22;13201;51.148;13.738;2023-04-22T08:14:27;17.10;99.90
25250;DHT22;13201;51.148;13.738;2023-04-22T08:16:53;17.30;99.90
25250;DHT22;13201;51.148;13.738;2023-04-22T08:19:19;17.40;99.90
25250;DHT22;13201;51.148;13.738;2023-04-22T08:21:45;17.40;99.90
25250;DHT22;13201;51.148;13.738;2023-04-22T08:24:11;17.40;99.90
25250;DHT22;13201;51.148;13.738;2023-04-22T08:26:37;17.60;99.90
25250;DHT22;13201;51.148;13.738;2023-04-22T08:29:04;17.70;99.60
25250;DHT22;13201;51.148;13.738;2023-04-22T08:31:30;17.70;99.90
25250;DHT22;13201;51.148;13.738;2023-04-22T08:33:56;17.90;99.90
25250;DHT22;13201;51.148;13.738;2023-04-22T08:36:22;17.80;99.50
25250;DHT22;13201;51.148;13.738;2023-04-22T08:38:50;17.90;99.50
25250;DHT22;13201;51.148;13.738;2023-04-22T08:41:17;17.90;98.90
25250;DHT22;13201;51.148;13.738;2023-04-22T08:43:43;18.00;98.90
25250;DHT22;13201;51.148;13.738;2023-04-22T08:46:11;18.10;99.90
25250;DHT22;13201;51.148;13.738;2023-04-22T08:48:37;18.20;98.90
25250;DHT22;13201;51.148;13.738;2023-04-22T08:51:02;18.40;99.00
25250;DHT22;13201;51.148;13.738;2023-04-22T08:53:30;18.50;99.50
25250;DHT22;13201;51.148;13.738;2023-04-22T08:55:56;18.50;99.00
25250;DHT22;13201;51.148;13.738;2023-04-22T08:58:22;18.60;98.80
25250;DHT22;13201;51.148;13.738;2023-04-22T09:00:49;18.70;98.90
25250;DHT22;13201;51.148;13.738;2023-04-22T09:03:15;18.90;98.60
25250;DHT22;13201;51.148;13.738;2023-04-22T09:05:42;19.00;98.40
25250;DHT22;13201;51.148;13.738;2023-04-22T09:08:09;19.10;98.90
25250;DHT22;13201;51.148;13.738;2023-04-22T09:10:37;19.30;98.80
25250;DHT22;13201;51.148;13.738;2023-04-22T09:13:04;19.20;97.20
25250;DHT22;13201;51.148;13.738;2023-04-22T09:15:31;19.30;97.90
25250;DHT22;13201;51.148;13.738;2023-04-22T09:17:57;19.30;96.80
25250;DHT22;13201;51.148;13.738;2023-04-22T09:20:27;19.40;97.10
25250;DHT22;13201;51.148;13.738;2023-04-22T09:22:55;19.40;96.90
25250;DHT22;13201;51.148;13.738;2023-04-22T09:25:25;19.50;96.00
25250;DHT22;13201;51.148;13.738;2023-04-22T09:27:56;19.60;96.70
25250;DHT22;13201;51.148;13.738;2023-04-22T09:30:34;19.70;96.40
25250;DHT22;13201;51.148;13.738;2023-04-22T09:33:03;19.80;95.90
25250;DHT22;13201;51.148;13.738;2023-04-22T09:35:34;19.80;95.40
25250;DHT22;13201;51.148;13.738;2023-04-22T09:38:02;19.80;95.50
25250;DHT22;13201;51.148;13.738;2023-04-22T09:40:29;19.90;95.20
25250;DHT22;13201;51.148;13.738;2023-04-22T09:42:56;20.00;95.60
25250;DHT22;13201;51.148;13.738;2023-04-22T09:45:26;20.00;95.20
25250;DHT22;13201;51.148;13.738;2023-04-22T09:47:54;20.10;94.80
25250;DHT22;13201;51.148;13.738;2023-04-22T09:50:20;20.20;95.00
25250;DHT22;13201;51.148;13.738;2023-04-22T09:53:15;20.30;95.40
25250;DHT22;13201;51.148;13.738;2023-04-22T09:55:46;20.40;94.40
25250;DHT22;13201;51.148;13.738;2023-04-22T09:58:17;20.50;94.80
25250;DHT22;13201;51.148;13.738;2023-04-22T10:00:50;20.50;93.70
25250;DHT22;13201;51.148;13.738;2023-04-22T10:03:17;20.60;94.10
25250;DHT22;13201;51.148;13.738;2023-04-22T10:05:44;20.80;95.40
25250;DHT22;13201;51.148;13.738;2023-04-22T10:08:11;21.00;94.90
25250;DHT22;13201;51.148;13.738;2023-04-22T10:10:37;21.10;94.60
25250;DHT22;13201;51.148;13.738;2023-04-22T10:13:04;21.10;94.20
25250;DHT22;13201;51.148;13.738;2023-04-22T10:15:32;21.10;93.60
25250;DHT22;13201;51.148;13.738;2023-04-22T10:17:59;20.50;92.30
25250;DHT22;13201;51.148;13.738;2023-04-22T10:20:28;20.90;93.80
25250;DHT22;13201;51.148;13.738;2023-04-22T10:22:55;21.10;93.20
25250;DHT22;13201;51.148;13.738;2023-04-22T10:25:23;21.30;93.60
25250;DHT22;13201;51.148;13.738;2023-04-22T10:28:02;21.40;93.70
25250;DHT22;13201;51.148;13.738;2023-04-22T10:30:30;21.50;92.70
25250;DHT22;13201;51.148;13.738;2023-04-22T10:41:15;21.40;92.50
25250;DHT22;13201;51.148;13.738;2023-04-22T10:43:42;21.70;93.00
25250;DHT22;13201;51.148;13.738;2023-04-22T10:51:54;21.80;93.00
25250;DHT22;13201;51.148;13.738;2023-04-22T10:59:45;22.00;91.50
25250;DHT22;13201;51.148;13.738;2023-04-22T11:02:13;22.20;92.20
25250;DHT22;13201;51.148;13.738;2023-04-22T11:04:40;22.20;90.80
25250;DHT22;13201;51.148;13.738;2023-04-22T11:10:07;22.30;91.00
25250;DHT22;13201;51.148;13.738;2023-04-22T11:15:13;22.50;90.10
25250;DHT22;13201;51.148;13.738;2023-04-22T11:17:45;22.80;91.50
25250;DHT22;13201;51.148;13.738;2023-04-22T11:20:12;22.80;90.50
25250;DHT22;13201;51.148;13.738;2023-04-22T11:22:45;22.60;89.00
25250;DHT22;13201;51.148;13.738;2023-04-22T11:25:11;22.70;89.90
25250;DHT22;13201;51.148;13.738;2023-04-22T11:27:38;22.90;90.90
25250;DHT22;13201;51.148;13.738;2023-04-22T11:30:13;23.10;90.40
25250;DHT22;13201;51.148;13.738;2023-04-22T11:32:46;22.60;88.30
25250;DHT22;13201;51.148;13.738;2023-04-22T11:35:16;22.70;89.70
25250;DHT22;13201;51.148;13.738;2023-04-22T11:37:45;22.90;88.80
25250;DHT22;13201;51.148;13.738;2023-04-22T11:40:14;23.00;88.10
25250;DHT22;13201;51.148;13.738;2023-04-22T11:42:40;23.00;86.70
25250;DHT22;13201;51.148;13.738;2023-04-22T11:45:07;22.90;85.10
25250;DHT22;13201;51.148;13.738;2023-04-22T11:47:33;23.20;89.10
25250;DHT22;13201;51.148;13.738;2023-04-22T11:50:01;23.40;88.70
25250;DHT22;13201;51.148;13.738;2023-04-22T11:55:15;23.50;87.80
25250;DHT22;13201;51.148;13.738;2023-04-22T11:57:41;23.30;84.20
25250;DHT22;13201;51.148;13.738;2023-04-22T12:00:11;23.10;84.30
25250;DHT22;13201;51.148;13.738;2023-04-22T12:02:38;23.40;86.90
25250;DHT22;13201;51.148;13.738;2023-04-22T12:05:04;23.70;86.50
25250;DHT22;13201;51.148;13.738;2023-04-22T12:07:33;24.10;86.10
25250;DHT22;13201;51.148;13.738;2023-04-22T12:09:59;23.70;85.10
25250;DHT22;13201;51.148;13.738;2023-04-22T12:12:27;24.10;85.30
25250;DHT22;13201;51.148;13.738;2023-04-22T12:14:53;24.30;83.80
25250;DHT22;13201;51.148;13.738;2023-04-22T12:17:23;24.30;83.60
25250;DHT22;13201;51.148;13.738;2023-04-22T12:19:53;23.80;80.40
25250;DHT22;13201;51.148;13.738;2023-04-22T12:22:27;24.00;83.50
25250;DHT22;13201;51.148;13.738;2023-04-22T12:24:53;23.80;83.70
25250;DHT22;13201;51.148;13.738;2023-04-22T12:27:19;23.70;81.00
25250;DHT22;13201;51.148;13.738;2023-04-22T12:29:53;23.70;80.80
25250;DHT22;13201;51.148;13.738;2023-04-22T12:32:25;24.00;80.90
25250;DHT22;13201;51.148;13.738;2023-04-22T12:34:51;23.80;79.90
25250;DHT22;13201;51.148;13.738;2023-04-22T12:37:17;24.10;79.40
25250;DHT22;13201;51.148;13.738;2023-04-22T12:39:44;24.00;79.10
25250;DHT22;13201;51.148;13.738;2023-04-22T12:42:10;24.50;81.60
25250;DHT22;13201;51.148;13.738;2023-04-22T12:44:36;24.30;78.40
25250;DHT22;13201;51.148;13.738;2023-04-22T12:47:02;24.50;79.90
25250;DHT22;13201;51.148;13.738;2023-04-22T12:49:27;24.60;79.50
25250;DHT22;13201;51.148;13.738;2023-04-22T12:51:53;24.70;79.00
25250;DHT22;13201;51.148;13.738;2023-04-22T12:54:19;24.80;77.30
25250;DHT22;13201;51.148;13.738;2023-04-22T12:56:46;24.30;72.90
25250;DHT22;13201;51.148;13.738;2023-04-22T12:59:12;24.60;77.30
25250;DHT22;13201;51.148;13.738;2023-04-22T13:01:38;24.80;78.30
25250;DHT22;13201;51.148;13.738;2023-04-22T13:04:04;25.10;78.50
25250;DHT22;13201;51.148;13.738;2023-04-22T13:06:30;24.90;77.60
25250;DHT22;13201;51.148;13.738;2023-04-22T13:08:57;24.90;78.30
25250;DHT22;13201;51.148;13.738;2023-04-22T13:11:23;24.90;78.40
25250;DHT22;13201;51.148;13.738;2023-04-22T13:13:50;24.80;77.60
25250;DHT22;13201;51.148;13.738;2023-04-22T13:16:16;25.10;77.90
25250;DHT22;13201;51.148;13.738;2023-04-22T13:18:42;25.30;77.20
25250;DHT22;13201;51.148;13.738;2023-04-22T13:21:08;25.00;77.50
25250;DHT22;13201;51.148;13.738;2023-04-22T13:23:33;25.10;77.30
25250;DHT22;13201;51.148;13.738;2023-04-22T13:26:00;25.30;77.30
25250;DHT22;13201;51.148;13.738;2023-04-22T13:28:25;25.00;75.70
25250;DHT22;13201;51.148;13.738;2023-04-22T13:30:51;25.20;76.40
25250;DHT22;13201;51.148;13.738;2023-04-22T13:33:17;25.70;75.70
25250;DHT22;13201;51.148;13.738;2023-04-22T13:35:43;25.30;75.30
25250;DHT22;13201;51.148;13.738;2023-04-22T13:38:08;24.70;75.00
25250;DHT22;13201;51.148;13.738;2023-04-22T13:40:34;24.80;74.50
25250;DHT22;13201;51.148;13.738;2023-04-22T13:43:00;25.40;75.90
25250;DHT22;13201;51.148;13.738;2023-04-22T13:45:26;25.50;73.40
25250;DHT22;13201;51.148;13.738;2023-04-22T13:47:52;25.40;74.00
25250;DHT22;13201;51.148;13.738;2023-04-22T13:50:18;25.50;74.00
25250;DHT22;13201;51.148;13.738;2023-04-22T13:52:44;25.70;72.80
25250;DHT22;13201;51.148;13.738;2023-04-22T13:55:10;25.70;71.30
25250;DHT22;13201;51.148;13.738;2023-04-22T13:57:36;26.10;74.90
25250;DHT22;13201;51.148;13.738;2023-04-22T14:00:02;26.20;72.10
25250;DHT22;13201;51.148;13.738;2023-04-22T14:02:28;26.00;70.80
25250;DHT22;13201;51.148;13.738;2023-04-22T14:04:54;25.70;71.50
25250;DHT22;13201;51.148;13.738;2023-04-22T14:07:19;26.20;71.10
25250;DHT22;13201;51.148;13.738;2023-04-22T14:09:45;25.80;70.80
25250;DHT22;13201;51.148;13.738;2023-04-22T14:12:11;25.80;70.30
25250;DHT22;13201;51.148;13.738;2023-04-22T14:14:37;26.30;72.40
25250;DHT22;13201;51.148;13.738;2023-04-22T14:17:02;26.10;70.90
25250;DHT22;13201;51.148;13.738;2023-04-22T14:19:28;26.30;70.60
25250;DHT22;13201;51.148;13.738;2023-04-22T14:21:55;25.90;70.50
25250;DHT22;13201;51.148;13.738;2023-04-22T14:24:21;26.30;70.30
25250;DHT22;13201;51.148;13.738;2023-04-22T14:26:49;26.80;70.60
25250;DHT22;13201;51.148;13.738;2023-04-22T14:29:15;26.70;67.60
25250;DHT22;13201;51.148;13.738;2023-04-22T14:31:41;27.10;67.60
25250;DHT22;13201;51.148;13.738;2023-04-22T14:34:07;27.00;68.80
25250;DHT22;13201;51.148;13.738;2023-04-22T14:36:32;27.30;67.90
25250;DHT22;13201;51.148;13.738;2023-04-22T14:38:58;27.20;69.60
25250;DHT22;13201;51.148;13.738;2023-04-22T14:41:24;27.30;67.30
25250;DHT22;13201;51.148;13.738;2023-04-22T14:43:50;26.60;66.60
25250;DHT22;13201;51.148;13.738;2023-04-22T14:46:15;27.00;67.90
25250;DHT22;13201;51.148;13.738;2023-04-22T14:48:41;27.00;66.50
25250;DHT22;13201;51.148;13.738;2023-04-22T14:51:07;27.60;67.50
25250;DHT22;13201;51.148;13.738;2023-04-22T14:53:32;27.30;64.30
25250;DHT22;13201;51.148;13.738;2023-04-22T14:55:58;27.70;66.60
25250;DHT22;13201;51.148;13.738;2023-04-22T14:58:24;27.30;66.70
25250;DHT22;13201;51.148;13.738;2023-04-22T15:00:51;27.20;65.50
25250;DHT22;13201;51.148;13.738;2023-04-22T15:03:17;27.20;67.20
25250;DHT22;13201;51.148;13.738;2023-04-22T15:05:43;27.20;67.00
25250;DHT22;13201;51.148;13.738;2023-04-22T15:08:09;27.50;67.90
25250;DHT22;13201;51.148;13.738;2023-04-22T15:10:35;27.90;66.90
25250;DHT22;13201;51.148;13.738;2023-04-22T15:13:01;27.70;65.50
25250;DHT22;13201;51.148;13.738;2023-04-22T15:15:27;27.30;64.70
25250;DHT22;13201;51.148;13.738;2023-04-22T15:17:52;27.60;66.30
25250;DHT22;13201;51.148;13.738;2023-04-22T15:20:18;27.30;66.60
25250;DHT22;13201;51.148;13.738;2023-04-22T15:22:44;27.00;66.00
25250;DHT22;13201;51.148;13.738;2023-04-22T15:25:10;27.40;64.90
25250;DHT22;13201;51.148;13.738;2023-04-22T15:27:39;27.70;65.90
25250;DHT22;13201;51.148;13.738;2023-04-22T15:30:05;27.50;67.00
25250;DHT22;13201;51.148;13.738;2023-04-22T15:32:31;27.20;66.00
25250;DHT22;13201;51.148;13.738;2023-04-22T15:34:57;27.30;66.20
25250;DHT22;13201;51.148;13.738;2023-04-22T15:37:23;27.50;66.80
25250;DHT22;13201;51.148;13.738;2023-04-22T15:39:48;27.80;66.00
25250;DHT22;13201;51.148;13.738;2023-04-22T15:42:14;27.90;65.00
25250;DHT22;13201;51.148;13.738;2023-04-22T15:44:40;27.40;65.30
25250;DHT22;13201;51.148;13.738;2023-04-22T15:47:06;26.40;65.40
25250;DHT22;13201;51.148;13.738;2023-04-22T15:49:35;25.70;65.70
25250;DHT22;13201;51.148;13.738;2023-04-22T15:52:01;25.60;67.00
25250;DHT22;13201;51.148;13.738;2023-04-22T15:54:26;25.90;67.60
25250;DHT22;13201;51.148;13.738;2023-04-22T15:56:52;26.20;67.40
25250;DHT22;13201;51.148;13.738;2023-04-22T15:59:18;26.30;67.60
25250;DHT22;13201;51.148;13.738;2023-04-22T16:01:43;26.30;67.60
25250;DHT22;13201;51.148;13.738;2023-04-22T16:04:09;26.10;68.20
25250;DHT22;13201;51.148;13.738;2023-04-22T16:06:35;26.10;68.00
25250;DHT22;13201;51.148;13.738;2023-04-22T16:09:02;25.40;67.10